createdAt,value
2018-10-07T00:01:56.970Z,63.60
2018-10-07T00:04:26.524Z,63.10
2018-10-07T00:06:56.018Z,63.00
2018-10-07T00:09:26.008Z,63.60
2018-10-07T00:11:55.502Z,65.20
2018-10-07T00:14:25.352Z,65.00
2018-10-07T00:16:55.177Z,65.20
2018-10-07T00:19:25.857Z,64.40
2018-10-07T00:21:55.286Z,64.30
2018-10-07T00:24:24.746Z,65.00
2018-10-07T00:26:55.038Z,64.70
2018-10-07T00:29:24.715Z,64.70
2018-10-07T00:31:54.404Z,65.30
2018-10-07T00:34:24.161Z,65.50
2018-10-07T00:36:53.736Z,66.10
2018-10-07T00:39:23.308Z,65.70
2018-10-07T00:41:52.803Z,66.30
2018-10-07T00:44:22.225Z,66.60
2018-10-07T00:46:51.609Z,67.10
2018-10-07T00:49:21.521Z,66.90
2018-10-07T00:51:51.045Z,68.20
2018-10-07T00:54:20.359Z,67.60
2018-10-07T00:56:50.825Z,68.20
2018-10-07T00:59:21.826Z,68.10
2018-10-07T01:01:51.476Z,68.20
2018-10-07T01:04:21.440Z,68.80
2018-10-07T01:06:53.184Z,69.90
2018-10-07T01:09:23.040Z,69.90
2018-10-07T01:11:52.892Z,70.60
2018-10-07T01:14:22.427Z,70.80
2018-10-07T01:16:52.035Z,71.30
2018-10-07T01:19:21.572Z,72.00
2018-10-07T01:21:51.104Z,72.60
2018-10-07T01:24:20.703Z,73.70
2018-10-07T01:26:50.204Z,73.60
2018-10-07T01:29:19.818Z,74.10
2018-10-07T01:31:49.450Z,74.60
2018-10-07T01:34:19.423Z,74.60
2018-10-07T01:36:49.068Z,74.50
2018-10-07T01:39:18.676Z,74.90
2018-10-07T01:41:48.115Z,75.80
2018-10-07T01:44:17.552Z,75.70
2018-10-07T01:46:47.640Z,75.40
2018-10-07T01:49:17.156Z,75.90
2018-10-07T01:51:46.596Z,76.60
2018-10-07T01:54:16.939Z,76.70
2018-10-07T01:56:46.318Z,77.10
2018-10-07T01:59:17.541Z,78.10
2018-10-07T02:01:47.832Z,78.00
2018-10-07T02:04:17.473Z,77.90
2018-10-07T02:06:48.545Z,77.90
2018-10-07T02:09:18.245Z,78.50
2018-10-07T02:11:48.187Z,78.40
2018-10-07T02:14:18.371Z,79.00
2018-10-07T02:16:48.021Z,79.20
2018-10-07T02:19:17.500Z,80.10
2018-10-07T02:21:47.117Z,80.10
2018-10-07T02:24:16.739Z,80.50
2018-10-07T02:26:46.489Z,80.40
2018-10-07T02:29:15.846Z,80.60
2018-10-07T02:31:45.155Z,81.20
2018-10-07T02:34:14.675Z,81.10
2018-10-07T02:36:44.467Z,81.00
2018-10-07T02:39:14.059Z,81.70
2018-10-07T02:41:44.182Z,82.20
2018-10-07T02:44:14.094Z,81.80
2018-10-07T02:46:45.431Z,82.30
2018-10-07T02:49:16.060Z,82.30
2018-10-07T02:51:46.702Z,82.70
2018-10-07T02:54:16.356Z,82.70
2018-10-07T02:56:46.062Z,82.80
2018-10-07T02:59:16.540Z,83.30
2018-10-07T03:01:46.136Z,83.40
2018-10-07T03:04:15.815Z,83.20
2018-10-07T03:06:45.282Z,83.50
2018-10-07T03:09:14.894Z,83.80
2018-10-07T03:11:47.436Z,83.80
2018-10-07T03:14:18.297Z,84.80
2018-10-07T03:16:47.956Z,84.00
2018-10-07T03:19:17.800Z,83.70
2018-10-07T03:21:48.833Z,84.10
2018-10-07T03:24:19.479Z,84.00
2018-10-07T03:26:49.876Z,84.90
2018-10-07T03:29:22.705Z,84.90
2018-10-07T03:31:52.156Z,85.10
2018-10-07T03:34:21.909Z,84.40
2018-10-07T03:36:53.155Z,84.70
2018-10-07T03:39:22.749Z,84.60
2018-10-07T03:41:53.103Z,85.00
2018-10-07T03:44:22.975Z,84.90
2018-10-07T03:46:53.521Z,85.30
2018-10-07T03:49:23.166Z,85.20
2018-10-07T03:51:52.545Z,85.90
2018-10-07T03:54:22.616Z,85.70
2018-10-07T03:56:52.658Z,85.90
2018-10-07T03:59:25.209Z,86.30
2018-10-07T04:01:56.038Z,86.50
2018-10-07T04:04:25.662Z,86.90
2018-10-07T04:06:55.949Z,87.10
2018-10-07T04:09:26.575Z,86.90
2018-10-07T04:11:56.198Z,86.40
2018-10-07T04:14:29.816Z,86.20
2018-10-07T04:16:59.386Z,86.40
2018-10-07T04:19:28.897Z,86.20
2018-10-07T04:21:59.768Z,86.40
2018-10-07T04:24:30.245Z,86.60
2018-10-07T04:27:00.290Z,86.10
2018-10-07T04:29:29.711Z,86.40
2018-10-07T04:31:59.255Z,86.40
2018-10-07T04:34:28.870Z,86.10
2018-10-07T04:36:58.666Z,86.50
2018-10-07T04:39:28.704Z,86.50
2018-10-07T04:41:58.229Z,86.80
2018-10-07T04:44:28.624Z,87.40
2018-10-07T04:46:58.425Z,87.40
2018-10-07T04:49:28.110Z,87.60
2018-10-07T04:51:58.464Z,88.00
2018-10-07T04:54:28.890Z,88.00
2018-10-07T04:56:58.483Z,88.30
2018-10-07T04:59:28.158Z,88.10
2018-10-07T05:01:58.824Z,88.10
2018-10-07T05:04:29.417Z,87.80
2018-10-07T05:07:00.013Z,88.00
2018-10-07T05:09:29.968Z,88.60
2018-10-07T05:12:01.686Z,89.20
2018-10-07T05:14:32.753Z,89.20
2018-10-07T05:17:02.811Z,89.20
2018-10-07T05:19:35.958Z,89.50
2018-10-07T05:22:05.599Z,90.00
2018-10-07T05:24:37.012Z,90.00
2018-10-07T05:27:06.615Z,90.10
2018-10-07T05:29:36.881Z,90.00
2018-10-07T05:32:07.507Z,90.00
2018-10-07T05:34:37.819Z,90.00
2018-10-07T05:37:08.432Z,90.00
2018-10-07T05:39:39.851Z,90.00
2018-10-07T05:42:09.935Z,90.00
2018-10-07T05:44:40.566Z,90.10
2018-10-07T05:47:10.211Z,90.00
2018-10-07T05:49:40.035Z,90.00
2018-10-07T05:52:15.449Z,90.00
2018-10-07T05:54:49.547Z,90.10
2018-10-07T05:57:23.004Z,90.30
2018-10-07T05:59:52.885Z,90.50
2018-10-07T06:02:22.882Z,90.30
2018-10-07T06:04:53.725Z,90.30
2018-10-07T06:07:24.604Z,90.30
2018-10-07T06:09:54.015Z,90.50
2018-10-07T06:12:23.512Z,90.60
2018-10-07T06:15:14.902Z,90.60
2018-10-07T06:17:44.859Z,90.60
2018-10-07T06:20:14.641Z,90.60
2018-10-07T06:22:44.833Z,90.70
2018-10-07T06:25:14.396Z,90.80
2018-10-07T06:27:44.009Z,90.60
2018-10-07T06:30:13.672Z,90.60
2018-10-07T06:32:56.050Z,90.70
2018-10-07T06:35:27.847Z,90.70
2018-10-07T06:37:57.500Z,90.80
2018-10-07T06:40:26.842Z,90.90
2018-10-07T06:42:56.377Z,90.90
2018-10-07T06:45:25.998Z,91.00
2018-10-07T06:47:55.576Z,91.00
2018-10-07T06:50:25.315Z,91.00
2018-10-07T06:52:54.749Z,91.00
2018-10-07T06:55:24.524Z,91.00
2018-10-07T06:57:54.107Z,91.10
2018-10-07T07:00:23.803Z,91.20
2018-10-07T07:02:53.570Z,91.10
2018-10-07T07:05:23.134Z,91.10
2018-10-07T07:07:52.807Z,91.20
2018-10-07T07:10:24.568Z,91.40
2018-10-07T07:12:55.121Z,91.40
2018-10-07T07:15:24.661Z,91.30
2018-10-07T07:17:54.677Z,91.40
2018-10-07T07:20:24.239Z,91.40
2018-10-07T07:22:54.413Z,91.40
2018-10-07T07:25:25.452Z,91.30
2018-10-07T07:27:56.466Z,91.30
2018-10-07T07:30:26.085Z,91.20
2018-10-07T07:32:55.967Z,91.40
2018-10-07T07:35:25.289Z,91.30
2018-10-07T07:37:54.515Z,91.50
2018-10-07T07:40:24.194Z,91.40
2018-10-07T07:42:55.103Z,91.40
2018-10-07T07:45:25.984Z,91.30
2018-10-07T07:47:55.488Z,91.20
2018-10-07T07:50:25.028Z,91.40
2018-10-07T07:52:54.533Z,91.40
2018-10-07T07:55:25.092Z,91.20
2018-10-07T07:57:54.779Z,91.40
2018-10-07T08:00:25.187Z,91.50
2018-10-07T08:02:56.643Z,91.50
2018-10-07T08:05:26.321Z,91.50
2018-10-07T08:07:56.482Z,91.50
2018-10-07T08:10:26.073Z,91.60
2018-10-07T08:12:55.863Z,91.60
2018-10-07T08:15:26.931Z,91.60
2018-10-07T08:17:57.046Z,91.60
2018-10-07T08:20:26.643Z,91.60
2018-10-07T08:22:57.658Z,91.60
2018-10-07T08:25:28.169Z,91.60
2018-10-07T08:27:57.657Z,91.50
2018-10-07T08:30:28.664Z,91.60
2018-10-07T08:32:58.112Z,91.60
2018-10-07T08:35:27.828Z,91.50
2018-10-07T08:37:57.888Z,91.60
2018-10-07T08:40:27.478Z,91.60
2018-10-07T08:42:57.329Z,91.60
2018-10-07T08:45:27.385Z,91.70
2018-10-07T08:47:57.709Z,91.50
2018-10-07T08:50:28.126Z,91.70
2018-10-07T08:52:57.705Z,91.70
2018-10-07T08:55:27.479Z,91.70
2018-10-07T08:57:57.237Z,91.70
2018-10-07T09:00:26.811Z,91.80
2018-10-07T09:02:56.512Z,91.80
2018-10-07T09:05:25.911Z,91.80
2018-10-07T09:07:55.353Z,91.80
2018-10-07T09:10:25.873Z,91.80
2018-10-07T09:12:56.177Z,91.70
2018-10-07T09:15:25.555Z,91.70
2018-10-07T09:17:55.160Z,91.70
2018-10-07T09:20:24.658Z,91.70
2018-10-07T09:22:54.202Z,91.60
2018-10-07T09:25:23.721Z,91.50
2018-10-07T09:27:53.773Z,91.50
2018-10-07T09:30:23.381Z,91.50
2018-10-07T09:32:53.071Z,91.50
2018-10-07T09:35:22.436Z,91.50
2018-10-07T09:37:51.969Z,91.60
2018-10-07T09:40:21.438Z,91.60
2018-10-07T09:42:51.100Z,91.60
2018-10-07T09:45:21.627Z,91.70
2018-10-07T09:47:52.450Z,91.70
2018-10-07T09:50:22.213Z,91.70
2018-10-07T09:52:51.974Z,91.70
2018-10-07T09:55:22.008Z,91.70
2018-10-07T09:57:52.149Z,91.70
2018-10-07T10:00:21.924Z,91.70
2018-10-07T10:02:52.445Z,91.60
2018-10-07T10:05:22.028Z,91.60
2018-10-07T10:07:52.234Z,91.70
2018-10-07T10:10:21.631Z,91.60
2018-10-07T10:12:51.171Z,91.70
2018-10-07T10:15:21.220Z,91.60
2018-10-07T10:17:50.931Z,91.60
2018-10-07T10:20:21.995Z,91.60
2018-10-07T10:22:51.822Z,91.60
2018-10-07T10:25:22.775Z,91.50
2018-10-07T10:27:52.668Z,91.70
2018-10-07T10:30:23.243Z,91.40
2018-10-07T10:32:52.823Z,91.40
2018-10-07T10:35:24.202Z,91.50
2018-10-07T10:37:54.059Z,91.40
2018-10-07T10:40:24.312Z,91.30
2018-10-07T10:42:54.358Z,91.30
2018-10-07T10:45:24.252Z,91.10
2018-10-07T10:47:55.131Z,91.20
2018-10-07T10:50:24.992Z,91.20
2018-10-07T10:52:55.004Z,91.10
2018-10-07T10:55:24.666Z,91.30
2018-10-07T10:57:54.757Z,91.40
2018-10-07T11:00:24.380Z,91.30
2018-10-07T11:02:54.229Z,91.20
2018-10-07T11:05:24.036Z,91.30
2018-10-07T11:07:54.648Z,91.30
2018-10-07T11:10:25.865Z,91.20
2018-10-07T11:12:55.765Z,91.40
2018-10-07T11:15:25.825Z,91.10
2018-10-07T11:17:56.017Z,91.20
2018-10-07T11:20:25.560Z,91.00
2018-10-07T11:22:55.439Z,90.90
2018-10-07T11:25:25.216Z,91.20
2018-10-07T11:27:55.614Z,90.70
2018-10-07T11:30:27.954Z,90.90
2018-10-07T11:32:57.713Z,90.90
2018-10-07T11:35:27.773Z,90.80
2018-10-07T11:37:57.499Z,90.80
2018-10-07T11:40:29.144Z,90.80
2018-10-07T11:42:58.705Z,90.80
2018-10-07T11:45:29.153Z,90.80
2018-10-07T11:47:59.526Z,90.70
2018-10-07T11:50:29.482Z,91.30
2018-10-07T11:52:59.611Z,91.30
2018-10-07T11:55:30.045Z,91.30
2018-10-07T11:57:59.790Z,90.90
2018-10-07T12:00:29.389Z,91.10
2018-10-07T12:03:00.675Z,91.30
2018-10-07T12:05:30.775Z,91.30
2018-10-07T12:08:01.081Z,91.20
2018-10-07T12:10:30.658Z,91.00
2018-10-07T12:13:00.329Z,91.10
2018-10-07T12:15:30.600Z,91.50
2018-10-07T12:18:00.319Z,91.50
2018-10-07T12:20:30.585Z,91.50
2018-10-07T12:23:00.958Z,91.50
2018-10-07T12:25:31.540Z,91.40
2018-10-07T12:28:00.923Z,91.70
2018-10-07T12:30:30.485Z,91.70
2018-10-07T12:33:00.096Z,91.70
2018-10-07T12:35:29.695Z,91.70
2018-10-07T12:37:59.218Z,91.50
2018-10-07T12:40:28.919Z,91.50
2018-10-07T12:43:00.295Z,91.50
2018-10-07T12:45:30.324Z,91.40
2018-10-07T12:48:00.017Z,91.50
2018-10-07T12:50:29.380Z,91.50
2018-10-07T12:52:59.305Z,91.40
2018-10-07T12:55:28.660Z,91.40
2018-10-07T12:57:58.138Z,91.40
2018-10-07T13:00:27.307Z,91.50
2018-10-07T13:02:57.651Z,91.40
2018-10-07T13:05:27.612Z,91.40
2018-10-07T13:07:57.716Z,91.50
2018-10-07T13:10:27.197Z,91.60
2018-10-07T13:12:56.877Z,91.20
2018-10-07T13:15:27.536Z,91.40
2018-10-07T13:17:57.575Z,91.70
2018-10-07T13:20:27.202Z,91.60
2018-10-07T13:22:58.124Z,91.70
2018-10-07T13:25:27.677Z,91.80
2018-10-07T13:27:57.271Z,92.20
2018-10-07T13:30:27.419Z,92.30
2018-10-07T13:32:57.109Z,92.10
2018-10-07T13:35:26.444Z,92.50
2018-10-07T13:37:56.642Z,92.40
2018-10-07T13:40:26.243Z,92.30
2018-10-07T13:42:55.631Z,92.70
2018-10-07T13:45:26.370Z,92.70
2018-10-07T13:47:59.893Z,92.70
2018-10-07T13:50:29.338Z,92.60
2018-10-07T13:52:58.893Z,92.60
2018-10-07T13:55:28.537Z,93.00
2018-10-07T13:57:58.766Z,92.70
2018-10-07T14:00:28.762Z,92.80
2018-10-07T14:02:58.403Z,93.10
2018-10-07T14:05:28.338Z,93.10
2018-10-07T14:07:57.992Z,93.20
2018-10-07T14:10:27.721Z,93.20
2018-10-07T14:12:57.336Z,93.40
2018-10-07T14:15:28.600Z,93.50
2018-10-07T14:17:58.155Z,93.60
2018-10-07T14:20:28.274Z,93.70
2018-10-07T14:22:57.952Z,93.50
2018-10-07T14:25:27.651Z,93.60
2018-10-07T14:27:58.134Z,93.50
2018-10-07T14:30:30.010Z,93.40
2018-10-07T14:32:59.433Z,93.50
2018-10-07T14:35:29.308Z,93.60
2018-10-07T14:37:58.958Z,93.60
2018-10-07T14:40:28.601Z,93.80
2018-10-07T14:42:58.321Z,93.80
2018-10-07T14:45:27.994Z,94.10
2018-10-07T14:47:57.659Z,94.00
2018-10-07T14:50:27.562Z,94.20
2018-10-07T14:52:57.833Z,93.90
2018-10-07T14:55:28.096Z,94.10
2018-10-07T14:57:58.273Z,94.10
2018-10-07T15:00:27.792Z,94.20
2018-10-07T15:02:57.361Z,94.40
2018-10-07T15:05:27.115Z,94.20
2018-10-07T15:07:57.529Z,94.30
2018-10-07T15:10:27.548Z,94.30
2018-10-07T15:12:58.142Z,94.30
2018-10-07T15:15:28.675Z,94.30
2018-10-07T15:17:58.369Z,94.20
2018-10-07T15:20:28.163Z,94.20
2018-10-07T15:22:58.009Z,94.30
2018-10-07T15:25:27.552Z,94.30
2018-10-07T15:27:58.512Z,94.10
2018-10-07T15:30:27.987Z,94.30
2018-10-07T15:32:57.706Z,94.20
2018-10-07T15:35:30.457Z,94.30
2018-10-07T15:38:00.355Z,94.20
2018-10-07T15:40:29.971Z,94.10
2018-10-07T15:42:59.323Z,94.10
2018-10-07T15:45:29.133Z,95.30
2018-10-07T15:47:59.381Z,93.20
2018-10-07T15:50:29.754Z,93.20
2018-10-07T15:52:59.670Z,93.70
2018-10-07T15:55:29.456Z,94.10
2018-10-07T15:58:00.116Z,94.30
2018-10-07T16:00:30.037Z,94.60
2018-10-07T16:03:22.836Z,94.60
2018-10-07T16:05:52.460Z,94.60
2018-10-07T16:08:22.704Z,94.60
2018-10-07T16:10:53.560Z,94.50
2018-10-07T16:13:23.160Z,94.50
2018-10-07T16:15:54.207Z,94.70
2018-10-07T16:18:24.508Z,94.70
2018-10-07T16:20:54.388Z,94.70
2018-10-07T16:23:24.341Z,94.80
2018-10-07T16:25:54.749Z,94.70
2018-10-07T16:28:24.336Z,94.60
2018-10-07T16:30:54.267Z,94.70
2018-10-07T16:33:23.683Z,94.80
2018-10-07T16:35:52.974Z,94.60
2018-10-07T16:38:23.658Z,94.60
2018-10-07T16:40:53.617Z,94.50
2018-10-07T16:43:23.347Z,94.40
2018-10-07T16:45:53.268Z,94.30
2018-10-07T16:48:23.280Z,94.30
2018-10-07T16:50:53.130Z,94.30
2018-10-07T16:53:24.123Z,94.30
2018-10-07T16:55:53.584Z,94.30
2018-10-07T16:58:23.131Z,94.20
2018-10-07T17:00:52.428Z,94.40
2018-10-07T17:03:22.030Z,94.40
2018-10-07T17:05:51.588Z,94.50
2018-10-07T17:08:22.068Z,94.50
2018-10-07T17:10:52.045Z,94.40
2018-10-07T17:13:22.064Z,94.50
2018-10-07T17:16:17.317Z,94.40
2018-10-07T17:18:49.816Z,94.40
2018-10-07T17:21:20.089Z,94.30
2018-10-07T17:23:50.568Z,94.10
2018-10-07T17:26:19.864Z,94.10
2018-10-07T17:28:49.609Z,94.40
2018-10-07T17:31:20.374Z,94.20
2018-10-07T17:33:49.824Z,94.30
2018-10-07T17:36:19.352Z,94.20
2018-10-07T17:38:49.044Z,94.10
2018-10-07T17:41:18.659Z,94.10
2018-10-07T17:43:48.886Z,94.10
2018-10-07T17:46:18.533Z,93.90
2018-10-07T17:48:47.906Z,93.80
2018-10-07T17:51:18.279Z,94.10
2018-10-07T17:53:48.720Z,93.90
2018-10-07T17:56:18.530Z,93.70
2018-10-07T17:58:48.223Z,93.40
2018-10-07T18:01:17.993Z,93.30
2018-10-07T18:03:48.540Z,93.50
2018-10-07T18:06:20.357Z,93.80
2018-10-07T18:08:50.383Z,93.80
2018-10-07T18:11:20.623Z,93.60
2018-10-07T18:13:50.056Z,93.60
2018-10-07T18:16:21.237Z,91.50
2018-10-07T18:18:51.634Z,93.20
2018-10-07T18:21:21.226Z,93.30
2018-10-07T18:23:50.932Z,92.80
2018-10-07T18:26:21.589Z,93.10
2018-10-07T18:28:51.196Z,93.00
2018-10-07T18:31:21.221Z,91.20
2018-10-07T18:33:52.805Z,92.50
2018-10-07T18:36:22.670Z,92.80
2018-10-07T18:38:52.110Z,93.00
2018-10-07T18:41:22.170Z,92.30
2018-10-07T18:43:52.777Z,93.30
2018-10-07T18:46:22.582Z,92.50
2018-10-07T18:48:52.354Z,92.20
2018-10-07T18:51:43.324Z,92.20
2018-10-07T18:54:13.478Z,92.60
2018-10-07T18:56:43.334Z,92.50
2018-10-07T18:59:13.684Z,91.50
2018-10-07T19:01:43.095Z,92.50
2018-10-07T19:04:12.717Z,91.70
2018-10-07T19:06:42.043Z,90.90
2018-10-07T19:09:12.265Z,91.60
2018-10-07T19:11:42.049Z,92.40
2018-10-07T19:14:12.341Z,93.20
2018-10-07T19:16:41.792Z,93.20
2018-10-07T19:19:11.704Z,92.40
2018-10-07T19:21:40.629Z,92.60
2018-10-07T19:24:10.261Z,92.90
2018-10-07T19:26:39.835Z,92.90
2018-10-07T19:29:09.188Z,92.90
2018-10-07T19:31:40.344Z,93.50
2018-10-07T19:34:10.380Z,93.40
2018-10-07T19:36:41.238Z,93.20
2018-10-07T19:39:13.709Z,93.20
2018-10-07T19:41:43.415Z,93.40
2018-10-07T19:44:13.064Z,93.00
2018-10-07T19:46:42.828Z,93.60
2018-10-07T19:49:12.583Z,93.50
2018-10-07T19:51:42.117Z,93.40
2018-10-07T19:54:11.614Z,93.80
2018-10-07T19:56:41.581Z,93.00
2018-10-07T19:59:11.112Z,92.80
2018-10-07T20:01:40.816Z,93.10
2018-10-07T20:04:10.545Z,93.10
2018-10-07T20:06:40.822Z,92.70
2018-10-07T20:09:10.511Z,92.60
2018-10-07T20:11:40.765Z,92.60
2018-10-07T20:14:10.311Z,93.10
2018-10-07T20:16:39.926Z,93.40
2018-10-07T20:19:09.684Z,93.40
2018-10-07T20:21:39.432Z,93.40
2018-10-07T20:24:09.347Z,93.40
2018-10-07T20:26:39.646Z,93.50
2018-10-07T20:29:09.611Z,93.50
2018-10-07T20:31:40.754Z,94.10
2018-10-07T20:34:10.357Z,93.70
2018-10-07T20:36:40.878Z,93.20
2018-10-07T20:39:10.491Z,92.90
2018-10-07T20:41:40.201Z,93.00
2018-10-07T20:44:12.299Z,93.30
2018-10-07T20:46:41.884Z,93.30
2018-10-07T20:49:12.155Z,93.20
2018-10-07T20:51:41.613Z,93.10
2018-10-07T20:54:11.130Z,92.90
2018-10-07T20:56:41.615Z,93.30
2018-10-07T20:59:10.944Z,93.30
2018-10-07T21:01:40.443Z,93.40
2018-10-07T21:04:10.998Z,93.40
2018-10-07T21:06:40.453Z,93.30
2018-10-07T21:09:10.948Z,93.30
2018-10-07T21:11:40.805Z,92.70
2018-10-07T21:14:11.073Z,93.20
2018-10-07T21:16:40.999Z,93.20
2018-10-07T21:19:10.712Z,92.30
2018-10-07T21:21:40.399Z,92.30
2018-10-07T21:24:09.817Z,92.00
2018-10-07T21:26:39.834Z,92.30
2018-10-07T21:29:09.391Z,92.60
2018-10-07T21:31:38.843Z,92.80
2018-10-07T21:34:08.316Z,92.30
2018-10-07T21:36:38.053Z,92.90
2018-10-07T21:39:07.635Z,91.50
2018-10-07T21:41:37.933Z,92.10
2018-10-07T21:44:07.630Z,92.50
2018-10-07T21:46:37.373Z,92.40
2018-10-07T21:49:08.212Z,92.60
2018-10-07T21:51:38.870Z,93.00
2018-10-07T21:54:08.978Z,92.20
2018-10-07T21:56:39.185Z,92.20
2018-10-07T21:59:09.536Z,91.50
2018-10-07T22:01:39.408Z,91.50
2018-10-07T22:04:09.129Z,91.60
2018-10-07T22:06:39.139Z,91.80
2018-10-07T22:09:09.183Z,89.00
2018-10-07T22:11:38.871Z,89.00
2018-10-07T22:14:08.700Z,90.40
2018-10-07T22:16:38.196Z,91.20
2018-10-07T22:19:07.827Z,91.70
2018-10-07T22:21:38.333Z,91.00
2018-10-07T22:24:08.672Z,89.50
2018-10-07T22:26:40.226Z,89.50
2018-10-07T22:29:09.704Z,90.10
2018-10-07T22:31:38.989Z,91.80
2018-10-07T22:34:08.968Z,91.90
2018-10-07T22:36:38.430Z,91.70
2018-10-07T22:39:09.161Z,92.10
2018-10-07T22:41:38.815Z,92.10
2018-10-07T22:44:08.225Z,92.10
2018-10-07T22:46:37.692Z,91.40
2018-10-07T22:49:07.736Z,91.10
2018-10-07T22:51:37.961Z,91.70
2018-10-07T22:54:07.500Z,91.70
2018-10-07T22:56:38.453Z,91.30
2018-10-07T22:59:09.522Z,91.70
2018-10-07T23:01:40.057Z,92.30
2018-10-07T23:04:09.357Z,92.30
2018-10-07T23:06:38.675Z,92.50
2018-10-07T23:09:08.765Z,92.50
2018-10-07T23:11:38.406Z,92.70
2018-10-07T23:14:08.723Z,92.90
2018-10-07T23:16:38.481Z,92.90
2018-10-07T23:19:08.241Z,93.20
2018-10-07T23:21:37.730Z,93.10
2018-10-07T23:24:07.303Z,92.90
2018-10-07T23:26:37.197Z,92.60
2018-10-07T23:29:07.900Z,92.50
2018-10-07T23:31:37.484Z,92.70
2018-10-07T23:34:07.052Z,93.40
2018-10-07T23:36:36.589Z,93.50
2018-10-07T23:39:06.546Z,93.40
2018-10-07T23:41:36.471Z,93.50
2018-10-07T23:44:06.069Z,93.20
2018-10-07T23:46:36.933Z,93.20
2018-10-07T23:49:08.661Z,92.90
2018-10-07T23:51:38.402Z,92.90
2018-10-07T23:54:08.056Z,93.30
2018-10-07T23:56:37.862Z,92.60
2018-10-07T23:59:08.004Z,93.50
